createdAt,value
2023-05-21T00:01:07.765Z,8.88
2023-05-21T00:03:36.256Z,8.63
2023-05-21T00:06:03.943Z,8.95
2023-05-21T00:08:31.184Z,8.30
2023-05-21T00:10:58.015Z,10.95
2023-05-21T00:13:24.877Z,8.35
2023-05-21T00:15:51.915Z,8.70
2023-05-21T00:18:18.773Z,9.07
2023-05-21T00:20:45.829Z,8.60
2023-05-21T00:23:12.772Z,8.95
2023-05-21T00:25:39.515Z,10.02
2023-05-21T00:28:06.408Z,9.05
2023-05-21T00:30:33.246Z,9.05
2023-05-21T00:33:02.558Z,8.48
2023-05-21T00:35:29.757Z,7.95
2023-05-21T00:37:56.490Z,8.60
2023-05-21T00:40:23.294Z,8.57
2023-05-21T00:42:50.175Z,8.73
2023-05-21T00:45:17.030Z,10.25
2023-05-21T00:47:44.474Z,8.50
2023-05-21T00:50:11.989Z,10.50
2023-05-21T00:52:42.241Z,8.77
2023-05-21T00:55:10.163Z,8.80
2023-05-21T00:57:37.322Z,8.52
2023-05-21T01:00:07.426Z,9.55
2023-05-21T01:02:37.056Z,9.00
2023-05-21T01:05:07.300Z,9.10
2023-05-21T01:07:35.158Z,8.65
2023-05-21T01:10:07.687Z,9.05
2023-05-21T01:12:36.405Z,9.75
2023-05-21T01:15:04.190Z,9.02
2023-05-21T01:17:32.016Z,9.18
2023-05-21T01:19:58.881Z,9.57
2023-05-21T01:22:26.565Z,9.00
2023-05-21T01:24:55.427Z,9.45
2023-05-21T01:27:22.872Z,8.85
2023-05-21T01:29:50.408Z,9.50
2023-05-21T01:32:26.196Z,8.73
2023-05-21T01:35:14.871Z,9.50
2023-05-21T01:37:46.715Z,8.68
2023-05-21T01:40:16.426Z,8.65
2023-05-21T01:42:44.774Z,8.82
2023-05-21T01:45:12.504Z,8.80
2023-05-21T01:47:39.782Z,8.73
2023-05-21T01:50:07.278Z,9.85
2023-05-21T01:52:34.023Z,9.52
2023-05-21T01:55:00.915Z,9.98
2023-05-21T01:57:27.872Z,8.68
2023-05-21T01:59:56.337Z,9.02
2023-05-21T02:02:23.050Z,8.93
2023-05-21T02:04:50.257Z,9.13
2023-05-21T02:07:18.449Z,9.27
2023-05-21T02:09:45.227Z,9.25
2023-05-21T02:12:12.707Z,9.00
2023-05-21T02:14:39.415Z,9.45
2023-05-21T02:17:08.163Z,8.98
2023-05-21T02:19:35.271Z,8.73
2023-05-21T02:22:02.173Z,9.00
2023-05-21T02:24:29.254Z,9.82
2023-05-21T02:26:56.372Z,8.68
2023-05-21T02:29:23.087Z,8.70
2023-05-21T02:31:51.367Z,9.55
2023-05-21T02:34:20.703Z,9.10
2023-05-21T02:36:52.418Z,8.90
2023-05-21T02:39:19.779Z,8.43
2023-05-21T02:41:47.155Z,9.30
2023-05-21T02:44:14.700Z,8.77
2023-05-21T02:46:41.363Z,9.60
2023-05-21T02:49:08.175Z,8.85
2023-05-21T02:51:34.922Z,8.52
2023-05-21T02:54:01.672Z,8.82
2023-05-21T02:56:28.755Z,8.70
2023-05-21T02:58:55.954Z,8.88
2023-05-21T03:01:22.934Z,8.63
2023-05-21T03:03:49.795Z,9.48
2023-05-21T03:06:16.585Z,9.10
2023-05-21T03:08:43.389Z,9.05
2023-05-21T03:11:10.232Z,8.93
2023-05-21T03:13:36.953Z,9.02
2023-05-21T03:16:04.506Z,8.48
2023-05-21T03:18:31.770Z,9.43
2023-05-21T03:20:59.088Z,8.95
2023-05-21T03:23:26.086Z,9.10
2023-05-21T03:25:54.172Z,9.10
2023-05-21T03:28:21.799Z,9.35
2023-05-21T03:30:51.070Z,9.70
2023-05-21T03:33:40.579Z,8.85
2023-05-21T03:36:18.630Z,9.95
2023-05-21T03:38:45.677Z,10.73
2023-05-21T03:41:12.837Z,9.30
2023-05-21T03:43:41.815Z,8.75
2023-05-21T03:46:08.686Z,8.80
2023-05-21T03:48:41.250Z,9.38
2023-05-21T03:51:10.999Z,8.70
2023-05-21T03:53:37.674Z,9.13
2023-05-21T03:56:04.722Z,9.48
2023-05-21T03:58:32.864Z,9.15
2023-05-21T04:01:01.850Z,8.68
2023-05-21T04:03:29.681Z,8.82
2023-05-21T04:05:56.800Z,8.98
2023-05-21T04:08:23.643Z,9.35
2023-05-21T04:10:50.390Z,8.90
2023-05-21T04:13:17.145Z,9.15
2023-05-21T04:15:46.740Z,8.55
2023-05-21T04:18:13.990Z,8.57
2023-05-21T04:20:40.885Z,8.80
2023-05-21T04:23:07.941Z,8.48
2023-05-21T04:25:34.963Z,8.00
2023-05-21T04:28:02.264Z,8.80
2023-05-21T04:30:29.183Z,8.88
2023-05-21T04:32:56.219Z,8.75
2023-05-21T04:35:23.510Z,9.18
2023-05-21T04:37:50.576Z,8.38
2023-05-21T04:40:18.500Z,8.80
2023-05-21T04:42:50.829Z,9.07
2023-05-21T04:45:19.274Z,9.05
2023-05-21T04:47:48.031Z,8.68
2023-05-21T04:50:14.863Z,8.77
2023-05-21T04:52:42.058Z,8.40
2023-05-21T04:55:08.980Z,8.77
2023-05-21T04:57:35.881Z,8.50
2023-05-21T05:00:04.184Z,8.60
2023-05-21T05:02:37.455Z,8.57
2023-05-21T05:05:04.828Z,8.23
2023-05-21T05:07:31.617Z,8.10
2023-05-21T05:09:58.726Z,8.27
2023-05-21T05:12:25.617Z,9.27
2023-05-21T05:14:52.332Z,8.00
2023-05-21T05:17:19.048Z,8.52
2023-05-21T05:19:45.985Z,7.88
2023-05-21T05:22:13.674Z,8.32
2023-05-21T05:24:42.023Z,8.57
2023-05-21T05:27:08.763Z,9.20
2023-05-21T05:29:35.545Z,8.90
2023-05-21T05:32:02.288Z,7.78
2023-05-21T05:34:28.989Z,8.50
2023-05-21T05:36:57.301Z,8.63
2023-05-21T05:39:24.302Z,8.82
2023-05-21T05:41:51.667Z,8.18
2023-05-21T05:44:18.811Z,7.95
2023-05-21T05:46:45.638Z,8.18
2023-05-21T05:49:13.694Z,8.52
2023-05-21T05:51:40.945Z,8.02
2023-05-21T05:54:07.816Z,8.32
2023-05-21T05:56:36.053Z,8.38
2023-05-21T05:59:04.639Z,8.95
2023-05-21T06:01:34.512Z,8.30
2023-05-21T06:04:01.259Z,8.32
2023-05-21T06:06:29.864Z,8.15
2023-05-21T06:08:57.314Z,8.05
2023-05-21T06:11:25.736Z,8.20
2023-05-21T06:13:52.583Z,8.15
2023-05-21T06:16:19.513Z,8.02
2023-05-21T06:18:46.700Z,7.85
2023-05-21T06:21:13.605Z,8.27
2023-05-21T06:23:40.536Z,7.70
2023-05-21T06:26:07.839Z,7.88
2023-05-21T06:28:35.017Z,7.63
2023-05-21T06:31:02.021Z,8.02
2023-05-21T06:33:32.031Z,7.57
2023-05-21T06:35:59.095Z,7.80
2023-05-21T06:38:26.241Z,7.05
2023-05-21T06:40:52.983Z,7.63
2023-05-21T06:43:35.464Z,7.40
2023-05-21T06:46:28.820Z,7.32
2023-05-21T06:48:55.590Z,7.75
2023-05-21T06:51:22.359Z,7.15
2023-05-21T06:53:49.522Z,6.90
2023-05-21T06:56:18.007Z,7.20
2023-05-21T06:58:44.740Z,7.00
2023-05-21T07:01:12.050Z,7.38
2023-05-21T07:03:39.123Z,7.82
2023-05-21T07:06:07.822Z,7.25
2023-05-21T07:08:34.653Z,7.45
2023-05-21T07:11:02.013Z,6.90
2023-05-21T07:13:30.487Z,7.03
2023-05-21T07:15:57.573Z,7.05
2023-05-21T07:18:25.670Z,6.80
2023-05-21T07:20:52.857Z,6.90
2023-05-21T07:23:21.305Z,7.22
2023-05-21T07:25:48.158Z,6.82
2023-05-21T07:28:15.015Z,7.93
2023-05-21T07:30:41.791Z,9.02
2023-05-21T07:33:13.742Z,9.48
2023-05-21T07:35:41.046Z,7.43
2023-05-21T07:38:08.033Z,7.40
2023-05-21T07:40:34.774Z,11.75
2023-05-21T07:43:02.626Z,7.28
2023-05-21T07:45:30.847Z,7.65
2023-05-21T07:47:57.819Z,7.90
2023-05-21T07:50:26.728Z,7.43
2023-05-21T07:52:54.756Z,7.90
2023-05-21T07:55:21.702Z,8.05
2023-05-21T07:57:48.498Z,8.10
2023-05-21T08:00:17.829Z,8.48
2023-05-21T08:02:52.830Z,8.48
2023-05-21T08:05:21.453Z,8.48
2023-05-21T08:07:48.798Z,7.88
2023-05-21T08:10:17.761Z,8.48
2023-05-21T08:12:46.640Z,8.57
2023-05-21T08:15:13.598Z,9.30
2023-05-21T08:17:44.420Z,9.45
2023-05-21T08:20:13.529Z,9.05
2023-05-21T08:22:43.778Z,9.95
2023-05-21T08:25:11.582Z,8.98
2023-05-21T08:27:38.376Z,9.07
2023-05-21T08:30:05.942Z,8.30
2023-05-21T08:32:32.763Z,10.93
2023-05-21T08:35:00.816Z,10.88
2023-05-21T08:37:56.877Z,8.95
2023-05-21T08:40:35.676Z,10.40
2023-05-21T08:43:02.626Z,9.73
2023-05-21T08:45:41.533Z,8.95
2023-05-21T08:48:11.732Z,9.45
2023-05-21T08:50:39.247Z,9.30
2023-05-21T08:53:26.658Z,9.52
2023-05-21T08:55:57.371Z,9.10
2023-05-21T08:58:33.667Z,8.85
2023-05-21T09:01:00.697Z,8.93
2023-05-21T09:03:29.366Z,8.60
2023-05-21T09:05:56.788Z,9.43
2023-05-21T09:08:29.954Z,10.95
2023-05-21T09:11:32.007Z,8.57
2023-05-21T09:14:00.420Z,9.60
2023-05-21T09:16:36.701Z,9.50
2023-05-21T09:19:04.753Z,8.80
2023-05-21T09:21:34.998Z,11.02
2023-05-21T09:24:14.174Z,8.82
2023-05-21T09:26:45.215Z,8.65
2023-05-21T09:29:13.439Z,8.43
2023-05-21T09:31:46.885Z,9.88
2023-05-21T09:34:14.656Z,9.23
2023-05-21T09:36:43.984Z,9.68
2023-05-21T09:39:16.473Z,8.80
2023-05-21T09:41:44.390Z,9.38
2023-05-21T09:44:11.334Z,10.65
2023-05-21T09:46:40.641Z,8.75
2023-05-21T09:49:13.633Z,9.68
2023-05-21T09:51:44.038Z,10.48
2023-05-21T09:54:11.291Z,10.20
2023-05-21T09:56:38.386Z,9.57
2023-05-21T09:59:05.202Z,10.30
2023-05-21T10:01:36.111Z,10.10
2023-05-21T10:04:07.438Z,9.00
2023-05-21T10:06:38.536Z,10.70
2023-05-21T10:09:07.827Z,9.20
2023-05-21T10:11:34.900Z,9.52
2023-05-21T10:14:06.131Z,10.63
2023-05-21T10:16:34.182Z,8.40
2023-05-21T10:19:01.127Z,11.27
2023-05-21T10:21:28.139Z,10.07
2023-05-21T10:23:57.191Z,9.23
2023-05-21T10:26:24.793Z,10.60
2023-05-21T10:28:52.235Z,9.75
2023-05-21T10:31:19.366Z,8.68
2023-05-21T10:33:46.328Z,8.18
2023-05-21T10:36:15.814Z,9.32
2023-05-21T10:38:43.562Z,9.75
2023-05-21T10:41:11.680Z,8.73
2023-05-21T10:44:02.936Z,8.57
2023-05-21T10:46:35.777Z,8.60
2023-05-21T10:49:06.314Z,8.90
2023-05-21T10:51:44.968Z,8.63
2023-05-21T10:54:50.058Z,9.05
2023-05-21T10:57:44.834Z,10.00
2023-05-21T11:00:13.142Z,8.87
2023-05-21T11:02:40.188Z,7.53
2023-05-21T11:05:07.563Z,9.40
2023-05-21T11:07:54.123Z,8.27
2023-05-21T11:10:36.928Z,8.38
2023-05-21T11:13:21.914Z,8.93
2023-05-21T11:15:57.753Z,7.82
2023-05-21T11:18:25.142Z,8.98
2023-05-21T11:20:52.151Z,9.32
2023-05-21T11:23:20.872Z,8.30
2023-05-21T11:26:15.844Z,8.77
2023-05-21T11:28:42.688Z,7.93
2023-05-21T11:31:30.462Z,7.40
2023-05-21T11:34:09.260Z,11.48
2023-05-21T11:36:37.964Z,10.70
2023-05-21T11:39:15.920Z,8.38
2023-05-21T11:41:58.459Z,7.90
2023-05-21T11:44:43.615Z,8.27
2023-05-21T11:47:11.815Z,9.85
2023-05-21T11:49:39.325Z,8.73
2023-05-21T11:52:07.426Z,9.52
2023-05-21T11:54:39.873Z,10.50
2023-05-21T11:57:10.594Z,9.90
2023-05-21T11:59:37.511Z,8.68
2023-05-21T12:02:05.019Z,11.20
2023-05-21T12:04:32.112Z,8.80
2023-05-21T12:06:59.090Z,9.75
2023-05-21T12:09:25.855Z,8.43
2023-05-21T12:11:53.355Z,11.32
2023-05-21T12:14:21.904Z,8.20
2023-05-21T12:16:48.681Z,8.25
2023-05-21T12:19:18.016Z,10.05
2023-05-21T12:21:45.348Z,9.77
2023-05-21T12:24:12.008Z,9.98
2023-05-21T12:26:38.825Z,8.20
2023-05-21T12:29:05.854Z,8.00
2023-05-21T12:31:33.053Z,7.72
2023-05-21T12:34:02.266Z,8.70
2023-05-21T12:36:34.966Z,8.55
2023-05-21T12:39:01.728Z,9.98
2023-05-21T12:41:29.695Z,8.23
2023-05-21T12:43:56.561Z,7.68
2023-05-21T12:46:23.561Z,7.78
2023-05-21T12:48:53.165Z,7.28
2023-05-21T12:51:20.495Z,8.10
2023-05-21T12:53:47.580Z,7.88
2023-05-21T12:56:16.099Z,9.77
2023-05-21T12:58:43.465Z,11.02
2023-05-21T13:01:11.924Z,8.57
2023-05-21T13:03:39.187Z,9.00
2023-05-21T13:06:08.533Z,7.13
2023-05-21T13:08:38.313Z,7.47
2023-05-21T13:11:05.205Z,7.25
2023-05-21T13:13:31.966Z,7.38
2023-05-21T13:16:00.618Z,7.43
2023-05-21T13:18:27.488Z,7.60
2023-05-21T13:20:54.324Z,7.10
2023-05-21T13:23:21.157Z,7.07
2023-05-21T13:25:47.905Z,7.70
2023-05-21T13:28:15.403Z,7.35
2023-05-21T13:30:42.302Z,7.45
2023-05-21T13:33:09.120Z,6.65
2023-05-21T13:35:36.361Z,7.90
2023-05-21T13:38:03.130Z,7.13
2023-05-21T13:40:29.812Z,8.02
2023-05-21T13:42:56.681Z,6.68
2023-05-21T13:45:29.104Z,7.45
2023-05-21T13:47:56.507Z,6.75
2023-05-21T13:50:23.354Z,8.15
2023-05-21T13:52:50.389Z,6.60
2023-05-21T13:55:17.242Z,7.50
2023-05-21T13:57:44.635Z,7.05
2023-05-21T14:00:14.300Z,7.70
2023-05-21T14:02:44.674Z,7.00
2023-05-21T14:05:12.265Z,7.18
2023-05-21T14:07:40.107Z,6.28
2023-05-21T14:10:07.352Z,7.18
2023-05-21T14:12:34.730Z,6.82
2023-05-21T14:15:01.520Z,6.22
2023-05-21T14:17:28.238Z,8.00
2023-05-21T14:19:55.821Z,6.70
2023-05-21T14:22:22.847Z,6.78
2023-05-21T14:24:49.673Z,7.40
2023-05-21T14:27:16.431Z,6.75
2023-05-21T14:29:43.186Z,6.93
2023-05-21T14:32:09.971Z,6.82
2023-05-21T14:34:38.557Z,6.53
2023-05-21T14:37:05.548Z,6.60
2023-05-21T14:39:32.270Z,6.40
2023-05-21T14:41:58.989Z,6.40
2023-05-21T14:44:26.559Z,6.57
2023-05-21T14:46:53.266Z,6.40
2023-05-21T14:49:20.104Z,8.15
2023-05-21T14:51:47.633Z,6.60
2023-05-21T14:54:14.721Z,6.10
2023-05-21T14:56:41.498Z,7.03
2023-05-21T14:59:08.287Z,6.68
2023-05-21T15:01:35.037Z,6.10
2023-05-21T15:04:03.553Z,8.75
2023-05-21T15:06:30.635Z,8.25
2023-05-21T15:08:58.433Z,6.95
2023-05-21T15:11:25.682Z,6.10
2023-05-21T15:13:52.400Z,6.30
2023-05-21T15:16:19.914Z,6.22
2023-05-21T15:18:46.850Z,6.20
2023-05-21T15:21:13.853Z,6.55
2023-05-21T15:23:40.592Z,6.60
2023-05-21T15:26:09.096Z,6.57
2023-05-21T15:28:35.810Z,6.72
2023-05-21T15:31:02.973Z,6.20
2023-05-21T15:33:29.798Z,8.43
2023-05-21T15:35:56.619Z,6.35
2023-05-21T15:38:23.387Z,6.35
2023-05-21T15:40:50.082Z,6.72
2023-05-21T15:43:16.860Z,6.63
2023-05-21T15:45:43.567Z,7.35
2023-05-21T15:48:12.407Z,6.18
2023-05-21T15:50:39.327Z,6.40
2023-05-21T15:53:06.147Z,6.22
2023-05-21T15:55:33.812Z,7.20
2023-05-21T15:58:04.027Z,6.68
2023-05-21T16:00:30.775Z,6.22
2023-05-21T16:02:57.675Z,6.03
2023-05-21T16:05:24.472Z,6.40
2023-05-21T16:07:51.542Z,6.20
2023-05-21T16:10:18.258Z,6.18
2023-05-21T16:12:45.009Z,7.15
2023-05-21T16:15:11.956Z,6.50
2023-05-21T16:17:38.722Z,6.38
2023-05-21T16:20:06.465Z,7.22
2023-05-21T16:22:33.255Z,6.60
2023-05-21T16:24:59.945Z,6.45
2023-05-21T16:27:26.676Z,6.75
2023-05-21T16:29:53.433Z,6.63
2023-05-21T16:32:20.369Z,6.43
2023-05-21T16:34:47.196Z,6.13
2023-05-21T16:37:13.991Z,6.35
2023-05-21T16:39:40.674Z,6.40
2023-05-21T16:42:07.364Z,6.85
2023-05-21T16:44:34.162Z,6.78
2023-05-21T16:47:02.020Z,6.50
2023-05-21T16:49:28.861Z,7.68
2023-05-21T16:51:55.707Z,6.97
2023-05-21T16:54:22.678Z,6.68
2023-05-21T16:56:49.408Z,6.45
2023-05-21T16:59:16.348Z,6.40
2023-05-21T17:01:43.206Z,6.47
2023-05-21T17:04:10.098Z,7.05
2023-05-21T17:06:36.895Z,6.32
2023-05-21T17:09:04.105Z,5.97
2023-05-21T17:11:30.929Z,6.45
2023-05-21T17:13:57.657Z,6.00
2023-05-21T17:16:25.082Z,6.40
2023-05-21T17:18:52.096Z,8.93
2023-05-21T17:21:19.325Z,6.10
2023-05-21T17:23:46.047Z,6.07
2023-05-21T17:26:13.983Z,6.68
2023-05-21T17:28:40.823Z,6.20
2023-05-21T17:31:08.842Z,6.30
2023-05-21T17:33:37.636Z,6.28
2023-05-21T17:36:04.761Z,5.85
2023-05-21T17:38:31.618Z,6.30
2023-05-21T17:40:59.344Z,6.25
2023-05-21T17:43:31.580Z,5.75
2023-05-21T17:45:58.407Z,6.00
2023-05-21T17:48:25.837Z,6.07
2023-05-21T17:50:52.657Z,6.50
2023-05-21T17:53:19.351Z,5.97
2023-05-21T17:55:46.117Z,5.97
2023-05-21T17:58:12.935Z,6.32
2023-05-21T18:00:39.742Z,6.05
2023-05-21T18:03:06.907Z,5.88
2023-05-21T18:05:33.782Z,6.80
2023-05-21T18:08:03.127Z,5.75
2023-05-21T18:10:29.905Z,6.00
2023-05-21T18:12:56.651Z,5.57
2023-05-21T18:15:23.466Z,5.60
2023-05-21T18:17:50.199Z,5.57
2023-05-21T18:20:17.060Z,6.10
2023-05-21T18:22:44.552Z,5.93
2023-05-21T18:25:11.530Z,5.45
2023-05-21T18:27:38.207Z,5.63
2023-05-21T18:30:06.593Z,5.32
2023-05-21T18:32:33.994Z,5.75
2023-05-21T18:35:00.784Z,5.40
2023-05-21T18:37:29.262Z,5.57
2023-05-21T18:39:56.035Z,5.70
2023-05-21T18:42:22.705Z,5.72
2023-05-21T18:44:52.315Z,6.07
2023-05-21T18:47:19.122Z,5.50
2023-05-21T18:49:45.935Z,7.88
2023-05-21T18:52:12.744Z,5.80
2023-05-21T18:54:39.534Z,6.00
2023-05-21T18:57:06.329Z,6.78
2023-05-21T18:59:33.016Z,6.28
2023-05-21T19:01:59.800Z,5.93
2023-05-21T19:04:27.402Z,6.43
2023-05-21T19:06:54.084Z,5.50
2023-05-21T19:09:20.874Z,5.75
2023-05-21T19:11:47.642Z,5.90
2023-05-21T19:14:14.365Z,5.40
2023-05-21T19:16:41.142Z,5.63
2023-05-21T19:19:08.214Z,5.60
2023-05-21T19:21:35.240Z,5.57
2023-05-21T19:24:04.189Z,5.68
2023-05-21T19:26:32.363Z,5.65
2023-05-21T19:28:59.053Z,5.60
2023-05-21T19:31:25.833Z,5.47
2023-05-21T19:33:52.843Z,5.40
2023-05-21T19:36:20.742Z,5.45
2023-05-21T19:38:50.908Z,5.32
2023-05-21T19:41:18.576Z,5.30
2023-05-21T19:43:45.897Z,5.78
2023-05-21T19:46:12.929Z,5.70
2023-05-21T19:48:39.813Z,5.93
2023-05-21T19:51:06.626Z,5.72
2023-05-21T19:53:33.382Z,5.38
2023-05-21T19:56:00.333Z,5.30
2023-05-21T19:58:29.515Z,6.00
2023-05-21T20:00:58.495Z,5.47
2023-05-21T20:03:26.537Z,5.50
2023-05-21T20:05:53.540Z,6.25
2023-05-21T20:08:20.458Z,5.90
2023-05-21T20:10:50.342Z,5.30
2023-05-21T20:13:18.273Z,5.60
2023-05-21T20:15:44.973Z,6.18
2023-05-21T20:18:13.035Z,5.90
2023-05-21T20:20:41.295Z,6.35
2023-05-21T20:23:08.622Z,5.00
2023-05-21T20:25:35.365Z,5.30
2023-05-21T20:28:03.403Z,5.38
2023-05-21T20:30:34.741Z,6.63
2023-05-21T20:33:02.445Z,5.60
2023-05-21T20:35:29.762Z,5.47
2023-05-21T20:37:56.465Z,5.05
2023-05-21T20:40:23.284Z,5.60
2023-05-21T20:42:51.932Z,5.90
2023-05-21T20:45:18.740Z,5.00
2023-05-21T20:47:45.594Z,5.80
2023-05-21T20:50:12.557Z,6.57
2023-05-21T20:52:39.328Z,5.43
2023-05-21T20:55:06.418Z,5.43
2023-05-21T20:57:33.195Z,5.65
2023-05-21T20:59:59.912Z,5.80
2023-05-21T21:02:27.097Z,5.55
2023-05-21T21:04:54.024Z,6.20
2023-05-21T21:07:20.821Z,6.40
2023-05-21T21:09:49.103Z,6.32
2023-05-21T21:12:25.780Z,5.50
2023-05-21T21:14:54.161Z,5.32
2023-05-21T21:17:21.263Z,5.95
2023-05-21T21:19:48.130Z,6.75
2023-05-21T21:22:15.799Z,5.97
2023-05-21T21:24:42.543Z,5.95
2023-05-21T21:27:09.306Z,6.03
2023-05-21T21:29:35.980Z,5.43
2023-05-21T21:32:02.824Z,6.18
2023-05-21T21:34:29.506Z,6.95
2023-05-21T21:36:56.200Z,5.63
2023-05-21T21:39:23.000Z,5.70
2023-05-21T21:41:49.694Z,5.50
2023-05-21T21:44:16.429Z,5.80
2023-05-21T21:46:43.097Z,5.60
2023-05-21T21:49:09.866Z,5.47
2023-05-21T21:51:37.050Z,5.38
2023-05-21T21:54:04.202Z,7.07
2023-05-21T21:56:30.989Z,5.78
2023-05-21T21:58:57.723Z,5.68
2023-05-21T22:01:24.501Z,6.00
2023-05-21T22:03:51.268Z,5.80
2023-05-21T22:06:18.090Z,5.97
2023-05-21T22:08:44.841Z,6.05
2023-05-21T22:11:11.829Z,5.60
2023-05-21T22:13:38.577Z,7.07
2023-05-21T22:16:05.634Z,6.15
2023-05-21T22:18:41.467Z,5.75
2023-05-21T22:21:10.145Z,5.40
2023-05-21T22:23:37.639Z,5.88
2023-05-21T22:26:04.587Z,5.53
2023-05-21T22:28:31.313Z,6.50
2023-05-21T22:30:58.644Z,5.70
2023-05-21T22:33:26.728Z,5.20
2023-05-21T22:35:54.630Z,5.70
2023-05-21T22:38:22.065Z,5.45
2023-05-21T22:40:48.800Z,5.47
2023-05-21T22:43:15.764Z,6.78
2023-05-21T22:45:42.684Z,5.95
2023-05-21T22:48:09.788Z,5.20
2023-05-21T22:50:38.775Z,5.97
2023-05-21T22:53:06.682Z,5.50
2023-05-21T22:55:33.421Z,5.68
2023-05-21T22:58:00.188Z,5.45
2023-05-21T23:00:27.307Z,5.75
2023-05-21T23:02:54.744Z,5.57
2023-05-21T23:05:22.200Z,5.68
2023-05-21T23:07:49.109Z,5.35
2023-05-21T23:10:15.982Z,5.93
2023-05-21T23:12:42.796Z,6.18
2023-05-21T23:15:10.885Z,5.78
2023-05-21T23:17:38.247Z,5.53
2023-05-21T23:20:07.259Z,6.53
2023-05-21T23:22:35.176Z,6.25
2023-05-21T23:25:02.196Z,5.60
2023-05-21T23:27:29.422Z,5.72
2023-05-21T23:29:56.498Z,6.75
2023-05-21T23:32:23.753Z,5.40
2023-05-21T23:34:50.817Z,5.55
2023-05-21T23:37:17.919Z,5.85
2023-05-21T23:39:48.280Z,5.60
2023-05-21T23:42:18.586Z,6.18
2023-05-21T23:44:45.484Z,5.90
2023-05-21T23:47:12.271Z,6.00
2023-05-21T23:49:39.430Z,6.80
2023-05-21T23:52:06.778Z,5.70
2023-05-21T23:54:33.464Z,6.00
2023-05-21T23:57:00.198Z,5.63
2023-05-21T23:59:26.928Z,5.78
